Portada
METAR-TAF:

METAR-TAF

Aeroports :

Kerman, Iran

latitud: 30-15N, longitud: 056-58E, altitud: 1748 m

Observació

L'informe es va fer fa 58 minuts, a les 08:00 UTC
Vent 6 kt del Sud/Sud-Oest
Temperatura 10°C
Humitat 6%
Pressió 1025 hPa
Visibilitat 10 km o més
sense núvols per sota de 1500 mi sense presència de cumulonimbus.

METAR: OIKK 120800Z 21006KT CAVOK 10/M26 Q1025

Hora: 12:28 (08:58 UTC)

Pronòstic

L'informe es va fer fa 3 hores i 18 minuts, a les 05:40 UTC
Pronòstic vàlid del 12 a les 06 UTC al 13 a les 12 UTC
Vent 6 kt del Nord/Nord-Oest
Visibilitat 10 km o més
sense núvols per sota de 1500 mi sense presència de cumulonimbus.

TAF: OIKK 120540Z 1206/1312 33006KT CAVOK

Observacions i pronòstics meteorològics de més de 4000 aeroports (METAR i TAF).

Les estacions disponibles són els punts grocs i vermells al mapa.

Posi el ratolí al punt desitjat per veure el nom de l'estació.

Feu clic per veure les observacions i els pronòstics meteorològics.

Per canviar el mapa: feu clic els botons verds amb una creu de color negre per apropar; al botó verd amb un guió per allunyar la imatge; o en les fletxes verdes per a mapes adjacents.


METAR-TAF: